Metar z pełnej godziny Komunikat METAR ze strony awiacja.imgw.pl Metar G00 EPRZ METAR EPRZ 070000Z 21010KT 9999 OVC008 01/01 Q1011 =